sensor_id;sensor_type;location;lat;lon;timestamp;P1;durP1;ratioP1;P2;durP2;ratioP2
74939;SDS011;63505;45.226;37.908;2023-04-06T00:02:12;7.57;;;2.75;;
74939;SDS011;63505;45.226;37.908;2023-04-06T00:04:38;4.78;;;1.73;;
74939;SDS011;63505;45.226;37.908;2023-04-06T00:07:04;5.57;;;2.55;;
74939;SDS011;63505;45.226;37.908;2023-04-06T00:09:30;7.93;;;3.75;;
74939;SDS011;63505;45.226;37.908;2023-04-06T00:11:56;7.90;;;3.28;;
74939;SDS011;63505;45.226;37.908;2023-04-06T00:14:23;6.55;;;2.72;;
74939;SDS011;63505;45.226;37.908;2023-04-06T00:16:49;5.22;;;2.15;;
74939;SDS011;63505;45.226;37.908;2023-04-06T00:19:15;6.70;;;2.30;;
74939;SDS011;63505;45.226;37.908;2023-04-06T00:21:41;8.60;;;2.47;;
74939;SDS011;63505;45.226;37.908;2023-04-06T00:24:06;8.63;;;2.42;;
74939;SDS011;63505;45.226;37.908;2023-04-06T00:26:32;10.25;;;3.03;;
74939;SDS011;63505;45.226;37.908;2023-04-06T00:28:58;6.95;;;2.95;;
74939;SDS011;63505;45.226;37.908;2023-04-06T00:31:24;5.93;;;3.10;;
74939;SDS011;63505;45.226;37.908;2023-04-06T00:33:50;5.43;;;1.92;;
74939;SDS011;63505;45.226;37.908;2023-04-06T00:36:16;7.60;;;2.63;;
74939;SDS011;63505;45.226;37.908;2023-04-06T00:38:42;6.43;;;2.25;;
74939;SDS011;63505;45.226;37.908;2023-04-06T00:41:08;5.47;;;2.13;;
74939;SDS011;63505;45.226;37.908;2023-04-06T00:43:34;5.28;;;2.63;;
74939;SDS011;63505;45.226;37.908;2023-04-06T00:46:00;7.40;;;3.05;;
74939;SDS011;63505;45.226;37.908;2023-04-06T00:48:26;6.95;;;2.45;;
74939;SDS011;63505;45.226;37.908;2023-04-06T00:50:52;6.45;;;2.60;;
74939;SDS011;63505;45.226;37.908;2023-04-06T00:53:18;7.53;;;2.45;;
74939;SDS011;63505;45.226;37.908;2023-04-06T00:55:44;6.13;;;2.28;;
74939;SDS011;63505;45.226;37.908;2023-04-06T00:58:10;9.18;;;2.63;;
74939;SDS011;63505;45.226;37.908;2023-04-06T01:00:45;5.15;;;2.25;;
74939;SDS011;63505;45.226;37.908;2023-04-06T01:03:16;5.78;;;1.58;;
74939;SDS011;63505;45.226;37.908;2023-04-06T01:05:42;5.63;;;1.65;;
74939;SDS011;63505;45.226;37.908;2023-04-06T01:08:23;4.43;;;1.83;;
74939;SDS011;63505;45.226;37.908;2023-04-06T01:10:55;2.90;;;0.75;;
74939;SDS011;63505;45.226;37.908;2023-04-06T01:13:27;6.20;;;1.65;;
74939;SDS011;63505;45.226;37.908;2023-04-06T01:15:57;2.20;;;0.88;;
74939;SDS011;63505;45.226;37.908;2023-04-06T01:18:40;6.40;;;1.25;;
74939;SDS011;63505;45.226;37.908;2023-04-06T01:21:20;3.22;;;1.80;;
74939;SDS011;63505;45.226;37.908;2023-04-06T01:24:15;1.70;;;0.70;;
74939;SDS011;63505;45.226;37.908;2023-04-06T01:27:03;6.43;;;1.55;;
74939;SDS011;63505;45.226;37.908;2023-04-06T01:29:50;4.15;;;1.58;;
74939;SDS011;63505;45.226;37.908;2023-04-06T01:32:30;3.83;;;1.27;;
74939;SDS011;63505;45.226;37.908;2023-04-06T01:34:56;1.83;;;0.90;;
74939;SDS011;63505;45.226;37.908;2023-04-06T01:37:22;2.28;;;1.10;;
74939;SDS011;63505;45.226;37.908;2023-04-06T01:39:52;2.28;;;1.20;;
74939;SDS011;63505;45.226;37.908;2023-04-06T01:42:28;4.63;;;0.93;;
74939;SDS011;63505;45.226;37.908;2023-04-06T01:44:56;10.00;;;1.98;;
74939;SDS011;63505;45.226;37.908;2023-04-06T01:47:22;2.97;;;1.25;;
74939;SDS011;63505;45.226;37.908;2023-04-06T01:49:48;2.13;;;0.80;;
74939;SDS011;63505;45.226;37.908;2023-04-06T01:52:16;5.00;;;1.77;;
74939;SDS011;63505;45.226;37.908;2023-04-06T01:54:48;2.25;;;1.20;;
74939;SDS011;63505;45.226;37.908;2023-04-06T01:57:19;3.28;;;1.13;;
74939;SDS011;63505;45.226;37.908;2023-04-06T01:59:55;5.18;;;0.55;;
74939;SDS011;63505;45.226;37.908;2023-04-06T02:02:27;1.42;;;0.80;;
74939;SDS011;63505;45.226;37.908;2023-04-06T02:05:04;2.05;;;0.75;;
74939;SDS011;63505;45.226;37.908;2023-04-06T02:07:30;4.90;;;1.40;;
74939;SDS011;63505;45.226;37.908;2023-04-06T02:09:56;3.60;;;0.47;;
74939;SDS011;63505;45.226;37.908;2023-04-06T02:12:33;2.78;;;0.90;;
74939;SDS011;63505;45.226;37.908;2023-04-06T02:15:00;4.07;;;1.90;;
74939;SDS011;63505;45.226;37.908;2023-04-06T02:17:26;3.35;;;1.10;;
74939;SDS011;63505;45.226;37.908;2023-04-06T02:19:52;2.40;;;1.30;;
74939;SDS011;63505;45.226;37.908;2023-04-06T02:22:18;3.20;;;1.27;;
74939;SDS011;63505;45.226;37.908;2023-04-06T02:24:44;7.68;;;1.63;;
74939;SDS011;63505;45.226;37.908;2023-04-06T02:27:12;4.05;;;0.93;;
74939;SDS011;63505;45.226;37.908;2023-04-06T02:29:39;3.58;;;1.10;;
74939;SDS011;63505;45.226;37.908;2023-04-06T02:32:05;5.00;;;1.27;;
74939;SDS011;63505;45.226;37.908;2023-04-06T02:34:31;1.50;;;0.80;;
74939;SDS011;63505;45.226;37.908;2023-04-06T02:36:57;1.88;;;1.08;;
74939;SDS011;63505;45.226;37.908;2023-04-06T02:39:23;2.92;;;1.15;;
74939;SDS011;63505;45.226;37.908;2023-04-06T02:41:49;1.48;;;0.80;;
74939;SDS011;63505;45.226;37.908;2023-04-06T02:44:20;3.17;;;1.55;;
74939;SDS011;63505;45.226;37.908;2023-04-06T02:46:46;4.35;;;1.08;;
74939;SDS011;63505;45.226;37.908;2023-04-06T02:49:12;3.80;;;1.33;;
74939;SDS011;63505;45.226;37.908;2023-04-06T02:51:39;3.95;;;1.27;;
74939;SDS011;63505;45.226;37.908;2023-04-06T02:54:18;2.33;;;0.90;;
74939;SDS011;63505;45.226;37.908;2023-04-06T02:56:44;4.55;;;1.00;;
74939;SDS011;63505;45.226;37.908;2023-04-06T02:59:11;5.28;;;1.30;;
74939;SDS011;63505;45.226;37.908;2023-04-06T03:01:39;2.97;;;0.90;;
74939;SDS011;63505;45.226;37.908;2023-04-06T03:04:05;8.20;;;1.63;;
74939;SDS011;63505;45.226;37.908;2023-04-06T03:06:31;4.25;;;1.00;;
74939;SDS011;63505;45.226;37.908;2023-04-06T03:09:05;2.05;;;0.88;;
74939;SDS011;63505;45.226;37.908;2023-04-06T03:11:32;4.20;;;0.90;;
74939;SDS011;63505;45.226;37.908;2023-04-06T03:13:58;3.63;;;0.77;;
74939;SDS011;63505;45.226;37.908;2023-04-06T03:16:25;3.92;;;0.93;;
74939;SDS011;63505;45.226;37.908;2023-04-06T03:18:51;1.52;;;0.50;;
74939;SDS011;63505;45.226;37.908;2023-04-06T03:21:17;3.47;;;0.50;;
74939;SDS011;63505;45.226;37.908;2023-04-06T03:23:50;2.17;;;1.00;;
74939;SDS011;63505;45.226;37.908;2023-04-06T03:26:16;5.70;;;1.15;;
74939;SDS011;63505;45.226;37.908;2023-04-06T03:28:43;5.82;;;1.38;;
74939;SDS011;63505;45.226;37.908;2023-04-06T03:31:09;3.78;;;1.48;;
74939;SDS011;63505;45.226;37.908;2023-04-06T03:33:45;2.58;;;1.00;;
74939;SDS011;63505;45.226;37.908;2023-04-06T03:36:18;3.47;;;1.20;;
74939;SDS011;63505;45.226;37.908;2023-04-06T03:38:44;6.18;;;1.25;;
74939;SDS011;63505;45.226;37.908;2023-04-06T03:41:12;6.95;;;1.00;;
74939;SDS011;63505;45.226;37.908;2023-04-06T03:43:42;10.35;;;1.38;;
74939;SDS011;63505;45.226;37.908;2023-04-06T03:46:08;21.38;;;1.92;;
74939;SDS011;63505;45.226;37.908;2023-04-06T03:48:34;7.95;;;1.50;;
74939;SDS011;63505;45.226;37.908;2023-04-06T03:51:03;3.72;;;1.05;;
74939;SDS011;63505;45.226;37.908;2023-04-06T03:53:29;3.70;;;0.98;;
74939;SDS011;63505;45.226;37.908;2023-04-06T03:55:55;4.32;;;0.73;;
74939;SDS011;63505;45.226;37.908;2023-04-06T03:58:21;5.20;;;0.95;;
74939;SDS011;63505;45.226;37.908;2023-04-06T04:00:47;3.72;;;0.98;;
74939;SDS011;63505;45.226;37.908;2023-04-06T04:03:13;4.90;;;1.60;;
74939;SDS011;63505;45.226;37.908;2023-04-06T04:05:39;12.48;;;5.03;;
74939;SDS011;63505;45.226;37.908;2023-04-06T04:08:05;5.82;;;1.77;;
74939;SDS011;63505;45.226;37.908;2023-04-06T04:10:31;3.53;;;2.70;;
74939;SDS011;63505;45.226;37.908;2023-04-06T04:12:56;10.75;;;3.22;;
74939;SDS011;63505;45.226;37.908;2023-04-06T04:15:22;1.40;;;0.57;;
74939;SDS011;63505;45.226;37.908;2023-04-06T04:17:48;5.20;;;2.10;;
74939;SDS011;63505;45.226;37.908;2023-04-06T04:20:15;4.55;;;1.52;;
74939;SDS011;63505;45.226;37.908;2023-04-06T04:22:42;11.65;;;3.72;;
74939;SDS011;63505;45.226;37.908;2023-04-06T04:25:09;5.63;;;1.33;;
74939;SDS011;63505;45.226;37.908;2023-04-06T04:27:40;7.95;;;3.08;;
74939;SDS011;63505;45.226;37.908;2023-04-06T04:30:06;34.67;;;11.80;;
74939;SDS011;63505;45.226;37.908;2023-04-06T04:32:32;32.95;;;7.13;;
74939;SDS011;63505;45.226;37.908;2023-04-06T04:35:01;13.23;;;4.53;;
74939;SDS011;63505;45.226;37.908;2023-04-06T04:37:34;15.20;;;5.75;;
74939;SDS011;63505;45.226;37.908;2023-04-06T04:40:02;8.68;;;1.90;;
74939;SDS011;63505;45.226;37.908;2023-04-06T04:42:31;4.68;;;1.60;;
74939;SDS011;63505;45.226;37.908;2023-04-06T04:44:59;2.47;;;1.65;;
74939;SDS011;63505;45.226;37.908;2023-04-06T04:47:32;4.03;;;1.33;;
74939;SDS011;63505;45.226;37.908;2023-04-06T04:49:59;4.65;;;1.20;;
74939;SDS011;63505;45.226;37.908;2023-04-06T04:52:25;7.18;;;2.08;;
74939;SDS011;63505;45.226;37.908;2023-04-06T04:55:09;4.10;;;1.13;;
74939;SDS011;63505;45.226;37.908;2023-04-06T04:57:36;0.98;;;0.38;;
74939;SDS011;63505;45.226;37.908;2023-04-06T05:00:04;2.10;;;0.55;;
74939;SDS011;63505;45.226;37.908;2023-04-06T05:02:32;1.38;;;0.57;;
74939;SDS011;63505;45.226;37.908;2023-04-06T05:05:09;3.42;;;0.88;;
74939;SDS011;63505;45.226;37.908;2023-04-06T05:07:36;4.22;;;0.85;;
74939;SDS011;63505;45.226;37.908;2023-04-06T05:10:03;1.45;;;0.60;;
74939;SDS011;63505;45.226;37.908;2023-04-06T05:12:36;2.08;;;0.55;;
74939;SDS011;63505;45.226;37.908;2023-04-06T05:15:07;6.40;;;2.55;;
74939;SDS011;63505;45.226;37.908;2023-04-06T05:17:34;19.02;;;6.80;;
74939;SDS011;63505;45.226;37.908;2023-04-06T05:20:01;33.63;;;15.20;;
74939;SDS011;63505;45.226;37.908;2023-04-06T05:22:30;26.90;;;10.15;;
74939;SDS011;63505;45.226;37.908;2023-04-06T05:40:37;2.42;;;0.68;;
74939;SDS011;63505;45.226;37.908;2023-04-06T05:43:09;1.90;;;0.80;;
74939;SDS011;63505;45.226;37.908;2023-04-06T05:48:05;0.25;;;0.10;;
74939;SDS011;63505;45.226;37.908;2023-04-06T05:50:31;0.65;;;0.30;;
74939;SDS011;63505;45.226;37.908;2023-04-06T05:52:57;0.95;;;0.45;;
74939;SDS011;63505;45.226;37.908;2023-04-06T05:55:29;4.18;;;0.50;;
74939;SDS011;63505;45.226;37.908;2023-04-06T05:58:07;1.40;;;0.63;;
74939;SDS011;63505;45.226;37.908;2023-04-06T06:00:34;1.50;;;0.47;;
74939;SDS011;63505;45.226;37.908;2023-04-06T06:03:04;4.90;;;0.60;;
74939;SDS011;63505;45.226;37.908;2023-04-06T06:05:33;2.05;;;0.60;;
74939;SDS011;63505;45.226;37.908;2023-04-06T06:08:06;1.38;;;1.00;;
74939;SDS011;63505;45.226;37.908;2023-04-06T06:10:33;4.90;;;0.52;;
74939;SDS011;63505;45.226;37.908;2023-04-06T06:12:59;1.15;;;0.52;;
74939;SDS011;63505;45.226;37.908;2023-04-06T06:15:26;2.05;;;0.70;;
74939;SDS011;63505;45.226;37.908;2023-04-06T06:17:52;0.50;;;0.30;;
74939;SDS011;63505;45.226;37.908;2023-04-06T06:20:18;1.55;;;0.55;;
74939;SDS011;63505;45.226;37.908;2023-04-06T06:22:44;2.58;;;1.08;;
74939;SDS011;63505;45.226;37.908;2023-04-06T06:25:15;2.35;;;0.98;;
74939;SDS011;63505;45.226;37.908;2023-04-06T06:27:44;1.10;;;0.30;;
74939;SDS011;63505;45.226;37.908;2023-04-06T06:30:10;2.20;;;0.47;;
74939;SDS011;63505;45.226;37.908;2023-04-06T06:32:39;1.17;;;0.20;;
74939;SDS011;63505;45.226;37.908;2023-04-06T06:35:05;0.95;;;0.50;;
74939;SDS011;63505;45.226;37.908;2023-04-06T06:37:32;1.08;;;0.32;;
74939;SDS011;63505;45.226;37.908;2023-04-06T06:40:00;4.20;;;0.45;;
74939;SDS011;63505;45.226;37.908;2023-04-06T06:42:26;0.73;;;0.38;;
74939;SDS011;63505;45.226;37.908;2023-04-06T06:45:17;0.47;;;0.30;;
74939;SDS011;63505;45.226;37.908;2023-04-06T06:47:44;1.60;;;1.23;;
74939;SDS011;63505;45.226;37.908;2023-04-06T06:50:10;4.97;;;0.60;;
74939;SDS011;63505;45.226;37.908;2023-04-06T06:52:36;2.70;;;0.52;;
74939;SDS011;63505;45.226;37.908;2023-04-06T06:55:02;4.93;;;2.15;;
74939;SDS011;63505;45.226;37.908;2023-04-06T06:57:28;1.15;;;0.50;;
74939;SDS011;63505;45.226;37.908;2023-04-06T06:59:54;2.97;;;0.52;;
74939;SDS011;63505;45.226;37.908;2023-04-06T07:02:21;1.75;;;0.40;;
74939;SDS011;63505;45.226;37.908;2023-04-06T07:04:47;2.58;;;0.40;;
74939;SDS011;63505;45.226;37.908;2023-04-06T07:07:15;2.92;;;0.52;;
74939;SDS011;63505;45.226;37.908;2023-04-06T07:09:42;3.28;;;0.70;;
74939;SDS011;63505;45.226;37.908;2023-04-06T07:12:07;4.05;;;0.50;;
74939;SDS011;63505;45.226;37.908;2023-04-06T07:14:33;4.15;;;0.70;;
74939;SDS011;63505;45.226;37.908;2023-04-06T07:17:00;1.65;;;0.40;;
74939;SDS011;63505;45.226;37.908;2023-04-06T07:19:26;0.82;;;0.50;;
74939;SDS011;63505;45.226;37.908;2023-04-06T07:21:52;3.00;;;0.60;;
74939;SDS011;63505;45.226;37.908;2023-04-06T07:24:18;2.05;;;0.70;;
74939;SDS011;63505;45.226;37.908;2023-04-06T07:26:44;1.75;;;0.47;;
74939;SDS011;63505;45.226;37.908;2023-04-06T07:29:09;2.10;;;0.63;;
74939;SDS011;63505;45.226;37.908;2023-04-06T07:31:36;2.30;;;0.60;;
74939;SDS011;63505;45.226;37.908;2023-04-06T07:34:02;1.88;;;1.48;;
74939;SDS011;63505;45.226;37.908;2023-04-06T07:36:28;1.40;;;0.52;;
74939;SDS011;63505;45.226;37.908;2023-04-06T07:38:54;1.90;;;0.60;;
74939;SDS011;63505;45.226;37.908;2023-04-06T07:41:21;3.17;;;0.55;;
74939;SDS011;63505;45.226;37.908;2023-04-06T07:43:49;1.20;;;0.60;;
74939;SDS011;63505;45.226;37.908;2023-04-06T07:46:15;0.45;;;0.30;;
74939;SDS011;63505;45.226;37.908;2023-04-06T07:48:41;1.55;;;0.60;;
74939;SDS011;63505;45.226;37.908;2023-04-06T07:51:07;0.40;;;0.30;;
74939;SDS011;63505;45.226;37.908;2023-04-06T07:53:38;2.33;;;0.68;;
74939;SDS011;63505;45.226;37.908;2023-04-06T07:56:04;2.15;;;0.50;;
74939;SDS011;63505;45.226;37.908;2023-04-06T07:58:30;0.70;;;0.38;;
74939;SDS011;63505;45.226;37.908;2023-04-06T08:00:55;0.93;;;0.20;;
74939;SDS011;63505;45.226;37.908;2023-04-06T08:03:23;0.43;;;0.20;;
74939;SDS011;63505;45.226;37.908;2023-04-06T08:05:51;0.47;;;0.17;;
74939;SDS011;63505;45.226;37.908;2023-04-06T08:08:18;2.67;;;0.80;;
74939;SDS011;63505;45.226;37.908;2023-04-06T08:10:44;3.22;;;0.50;;
74939;SDS011;63505;45.226;37.908;2023-04-06T08:13:10;2.45;;;0.70;;
74939;SDS011;63505;45.226;37.908;2023-04-06T08:15:36;2.72;;;0.57;;
74939;SDS011;63505;45.226;37.908;2023-04-06T08:18:02;2.15;;;0.68;;
74939;SDS011;63505;45.226;37.908;2023-04-06T08:20:28;1.70;;;0.60;;
74939;SDS011;63505;45.226;37.908;2023-04-06T08:22:54;1.33;;;0.65;;
74939;SDS011;63505;45.226;37.908;2023-04-06T08:25:20;2.67;;;0.45;;
74939;SDS011;63505;45.226;37.908;2023-04-06T08:27:46;0.85;;;0.40;;
74939;SDS011;63505;45.226;37.908;2023-04-06T08:30:12;1.02;;;0.38;;
74939;SDS011;63505;45.226;37.908;2023-04-06T08:32:40;2.13;;;0.70;;
74939;SDS011;63505;45.226;37.908;2023-04-06T08:35:06;2.35;;;0.43;;
74939;SDS011;63505;45.226;37.908;2023-04-06T08:37:33;1.65;;;0.50;;
74939;SDS011;63505;45.226;37.908;2023-04-06T08:39:59;2.00;;;0.68;;
74939;SDS011;63505;45.226;37.908;2023-04-06T08:42:25;2.10;;;0.70;;
74939;SDS011;63505;45.226;37.908;2023-04-06T08:44:56;2.03;;;0.60;;
74939;SDS011;63505;45.226;37.908;2023-04-06T08:47:22;4.25;;;0.82;;
74939;SDS011;63505;45.226;37.908;2023-04-06T08:49:47;2.67;;;1.02;;
74939;SDS011;63505;45.226;37.908;2023-04-06T08:52:15;1.15;;;0.40;;
74939;SDS011;63505;45.226;37.908;2023-04-06T08:54:44;2.03;;;0.57;;
74939;SDS011;63505;45.226;37.908;2023-04-06T08:57:10;4.18;;;0.55;;
74939;SDS011;63505;45.226;37.908;2023-04-06T08:59:36;0.57;;;0.40;;
74939;SDS011;63505;45.226;37.908;2023-04-06T09:02:04;0.57;;;0.22;;
74939;SDS011;63505;45.226;37.908;2023-04-06T09:04:31;2.35;;;0.60;;
74939;SDS011;63505;45.226;37.908;2023-04-06T09:07:00;1.45;;;0.90;;
74939;SDS011;63505;45.226;37.908;2023-04-06T09:09:26;1.45;;;0.85;;
74939;SDS011;63505;45.226;37.908;2023-04-06T09:11:53;2.85;;;0.63;;
74939;SDS011;63505;45.226;37.908;2023-04-06T09:14:35;4.00;;;0.70;;
74939;SDS011;63505;45.226;37.908;2023-04-06T09:17:01;1.08;;;0.40;;
74939;SDS011;63505;45.226;37.908;2023-04-06T09:19:27;1.55;;;0.68;;
74939;SDS011;63505;45.226;37.908;2023-04-06T09:22:06;1.23;;;0.82;;
74939;SDS011;63505;45.226;37.908;2023-04-06T09:24:50;1.65;;;0.60;;
74939;SDS011;63505;45.226;37.908;2023-04-06T09:27:19;6.88;;;0.90;;
74939;SDS011;63505;45.226;37.908;2023-04-06T09:30:16;2.72;;;0.80;;
74939;SDS011;63505;45.226;37.908;2023-04-06T09:32:47;3.75;;;1.13;;
74939;SDS011;63505;45.226;37.908;2023-04-06T09:35:17;2.42;;;0.70;;
74939;SDS011;63505;45.226;37.908;2023-04-06T09:37:46;2.83;;;0.75;;
74939;SDS011;63505;45.226;37.908;2023-04-06T09:40:13;6.65;;;1.20;;
74939;SDS011;63505;45.226;37.908;2023-04-06T09:42:44;3.65;;;0.63;;
74939;SDS011;63505;45.226;37.908;2023-04-06T09:45:12;1.60;;;0.90;;
74939;SDS011;63505;45.226;37.908;2023-04-06T09:47:39;1.55;;;0.50;;
74939;SDS011;63505;45.226;37.908;2023-04-06T09:50:08;1.88;;;0.60;;
74939;SDS011;63505;45.226;37.908;2023-04-06T09:52:46;1.92;;;0.80;;
74939;SDS011;63505;45.226;37.908;2023-04-06T09:55:25;2.30;;;0.35;;
74939;SDS011;63505;45.226;37.908;2023-04-06T09:58:04;2.40;;;0.52;;
74939;SDS011;63505;45.226;37.908;2023-04-06T10:00:32;0.57;;;0.20;;
74939;SDS011;63505;45.226;37.908;2023-04-06T10:03:13;1.52;;;0.30;;
74939;SDS011;63505;45.226;37.908;2023-04-06T10:05:55;2.45;;;0.65;;
74939;SDS011;63505;45.226;37.908;2023-04-06T10:08:28;1.45;;;0.30;;
74939;SDS011;63505;45.226;37.908;2023-04-06T10:10:55;0.93;;;0.47;;
74939;SDS011;63505;45.226;37.908;2023-04-06T10:13:21;1.40;;;0.52;;
74939;SDS011;63505;45.226;37.908;2023-04-06T10:15:49;1.05;;;0.57;;
74939;SDS011;63505;45.226;37.908;2023-04-06T10:18:17;1.30;;;0.60;;
74939;SDS011;63505;45.226;37.908;2023-04-06T10:25:59;1.55;;;0.50;;
74939;SDS011;63505;45.226;37.908;2023-04-06T10:28:25;1.42;;;0.70;;
74939;SDS011;63505;45.226;37.908;2023-04-06T10:30:57;2.17;;;1.15;;
74939;SDS011;63505;45.226;37.908;2023-04-06T10:33:24;2.63;;;0.80;;
74939;SDS011;63505;45.226;37.908;2023-04-06T10:35:50;1.27;;;0.60;;
74939;SDS011;63505;45.226;37.908;2023-04-06T10:38:16;1.73;;;0.60;;
74939;SDS011;63505;45.226;37.908;2023-04-06T10:40:47;3.88;;;0.70;;
74939;SDS011;63505;45.226;37.908;2023-04-06T10:43:17;1.15;;;0.50;;
74939;SDS011;63505;45.226;37.908;2023-04-06T10:45:54;2.45;;;0.60;;
74939;SDS011;63505;45.226;37.908;2023-04-06T10:48:21;1.55;;;0.55;;
74939;SDS011;63505;45.226;37.908;2023-04-06T10:50:48;1.23;;;0.47;;
74939;SDS011;63505;45.226;37.908;2023-04-06T10:55:47;3.58;;;0.88;;
74939;SDS011;63505;45.226;37.908;2023-04-06T10:58:15;1.83;;;0.70;;
74939;SDS011;63505;45.226;37.908;2023-04-06T11:00:45;2.13;;;0.73;;
74939;SDS011;63505;45.226;37.908;2023-04-06T11:03:12;3.25;;;0.55;;
74939;SDS011;63505;45.226;37.908;2023-04-06T11:05:38;1.73;;;0.60;;
74939;SDS011;63505;45.226;37.908;2023-04-06T11:08:08;1.70;;;0.60;;
74939;SDS011;63505;45.226;37.908;2023-04-06T11:10:34;2.05;;;0.85;;
74939;SDS011;63505;45.226;37.908;2023-04-06T11:13:00;1.20;;;0.55;;
74939;SDS011;63505;45.226;37.908;2023-04-06T11:15:26;1.45;;;0.77;;
74939;SDS011;63505;45.226;37.908;2023-04-06T11:17:52;3.28;;;0.50;;
74939;SDS011;63505;45.226;37.908;2023-04-06T11:20:18;4.38;;;0.75;;
74939;SDS011;63505;45.226;37.908;2023-04-06T11:22:48;1.65;;;0.65;;
74939;SDS011;63505;45.226;37.908;2023-04-06T11:25:17;1.52;;;0.63;;
74939;SDS011;63505;45.226;37.908;2023-04-06T11:27:44;1.35;;;0.50;;
74939;SDS011;63505;45.226;37.908;2023-04-06T11:30:12;2.67;;;0.50;;
74939;SDS011;63505;45.226;37.908;2023-04-06T11:32:43;2.17;;;0.82;;
74939;SDS011;63505;45.226;37.908;2023-04-06T11:35:10;2.72;;;0.63;;
74939;SDS011;63505;45.226;37.908;2023-04-06T11:37:46;4.57;;;0.68;;
74939;SDS011;63505;45.226;37.908;2023-04-06T11:40:13;1.27;;;0.70;;
74939;SDS011;63505;45.226;37.908;2023-04-06T11:42:39;1.30;;;0.60;;
74939;SDS011;63505;45.226;37.908;2023-04-06T11:45:06;2.83;;;0.68;;
74939;SDS011;63505;45.226;37.908;2023-04-06T11:47:34;1.35;;;0.57;;
74939;SDS011;63505;45.226;37.908;2023-04-06T11:50:09;1.27;;;0.70;;
74939;SDS011;63505;45.226;37.908;2023-04-06T11:52:36;1.95;;;0.70;;
74939;SDS011;63505;45.226;37.908;2023-04-06T11:55:16;1.73;;;0.70;;
74939;SDS011;63505;45.226;37.908;2023-04-06T11:57:43;4.97;;;0.55;;
74939;SDS011;63505;45.226;37.908;2023-04-06T12:00:10;1.70;;;0.57;;
74939;SDS011;63505;45.226;37.908;2023-04-06T12:02:38;2.22;;;0.70;;
74939;SDS011;63505;45.226;37.908;2023-04-06T12:05:04;1.20;;;0.40;;
74939;SDS011;63505;45.226;37.908;2023-04-06T12:07:31;4.90;;;0.68;;
74939;SDS011;63505;45.226;37.908;2023-04-06T12:09:58;2.60;;;0.63;;
74939;SDS011;63505;45.226;37.908;2023-04-06T12:12:26;0.63;;;0.40;;
74939;SDS011;63505;45.226;37.908;2023-04-06T12:14:52;1.83;;;0.70;;
74939;SDS011;63505;45.226;37.908;2023-04-06T12:17:18;1.63;;;0.80;;
74939;SDS011;63505;45.226;37.908;2023-04-06T12:19:45;2.53;;;0.52;;
74939;SDS011;63505;45.226;37.908;2023-04-06T12:22:11;2.25;;;0.60;;
74939;SDS011;63505;45.226;37.908;2023-04-06T12:24:37;2.17;;;0.70;;
74939;SDS011;63505;45.226;37.908;2023-04-06T12:27:03;1.70;;;0.55;;
74939;SDS011;63505;45.226;37.908;2023-04-06T12:29:29;1.77;;;0.50;;
74939;SDS011;63505;45.226;37.908;2023-04-06T12:31:55;1.40;;;0.65;;
74939;SDS011;63505;45.226;37.908;2023-04-06T12:34:21;1.67;;;0.65;;
74939;SDS011;63505;45.226;37.908;2023-04-06T12:36:47;1.88;;;1.30;;
74939;SDS011;63505;45.226;37.908;2023-04-06T12:39:13;2.67;;;0.60;;
74939;SDS011;63505;45.226;37.908;2023-04-06T12:41:39;1.65;;;0.40;;
74939;SDS011;63505;45.226;37.908;2023-04-06T12:44:06;2.38;;;0.70;;
74939;SDS011;63505;45.226;37.908;2023-04-06T12:46:32;1.08;;;0.40;;
74939;SDS011;63505;45.226;37.908;2023-04-06T12:48:58;1.77;;;0.85;;
74939;SDS011;63505;45.226;37.908;2023-04-06T12:51:26;2.10;;;0.60;;
74939;SDS011;63505;45.226;37.908;2023-04-06T12:53:53;5.15;;;0.90;;
74939;SDS011;63505;45.226;37.908;2023-04-06T12:56:20;1.50;;;0.73;;
74939;SDS011;63505;45.226;37.908;2023-04-06T12:58:50;1.48;;;0.73;;
74939;SDS011;63505;45.226;37.908;2023-04-06T13:01:16;2.42;;;0.93;;
74939;SDS011;63505;45.226;37.908;2023-04-06T13:03:43;2.72;;;0.80;;
74939;SDS011;63505;45.226;37.908;2023-04-06T13:06:09;2.08;;;1.00;;
74939;SDS011;63505;45.226;37.908;2023-04-06T13:08:36;2.53;;;1.15;;
74939;SDS011;63505;45.226;37.908;2023-04-06T13:11:03;6.03;;;1.45;;
74939;SDS011;63505;45.226;37.908;2023-04-06T13:13:30;3.63;;;0.77;;
74939;SDS011;63505;45.226;37.908;2023-04-06T13:16:01;2.78;;;1.27;;
74939;SDS011;63505;45.226;37.908;2023-04-06T13:18:29;6.30;;;1.50;;
74939;SDS011;63505;45.226;37.908;2023-04-06T13:20:56;4.40;;;1.45;;
74939;SDS011;63505;45.226;37.908;2023-04-06T13:23:22;7.70;;;1.60;;
74939;SDS011;63505;45.226;37.908;2023-04-06T13:25:56;2.13;;;0.93;;
74939;SDS011;63505;45.226;37.908;2023-04-06T13:28:24;3.30;;;1.33;;
74939;SDS011;63505;45.226;37.908;2023-04-06T13:30:51;2.25;;;0.85;;
74939;SDS011;63505;45.226;37.908;2023-04-06T13:33:17;2.88;;;0.90;;
74939;SDS011;63505;45.226;37.908;2023-04-06T13:35:46;1.65;;;0.85;;
74939;SDS011;63505;45.226;37.908;2023-04-06T13:38:13;5.05;;;1.25;;
74939;SDS011;63505;45.226;37.908;2023-04-06T13:40:39;3.58;;;1.10;;
74939;SDS011;63505;45.226;37.908;2023-04-06T13:43:06;1.83;;;0.60;;
74939;SDS011;63505;45.226;37.908;2023-04-06T13:45:32;6.13;;;1.10;;
74939;SDS011;63505;45.226;37.908;2023-04-06T13:47:59;2.85;;;0.73;;
74939;SDS011;63505;45.226;37.908;2023-04-06T13:50:25;4.47;;;1.10;;
74939;SDS011;63505;45.226;37.908;2023-04-06T13:52:52;5.03;;;1.30;;
74939;SDS011;63505;45.226;37.908;2023-04-06T13:55:18;4.80;;;1.27;;
74939;SDS011;63505;45.226;37.908;2023-04-06T13:57:43;2.40;;;1.17;;
74939;SDS011;63505;45.226;37.908;2023-04-06T14:00:10;4.90;;;1.20;;
74939;SDS011;63505;45.226;37.908;2023-04-06T14:02:38;4.50;;;1.48;;
74939;SDS011;63505;45.226;37.908;2023-04-06T14:05:05;3.22;;;0.90;;
74939;SDS011;63505;45.226;37.908;2023-04-06T14:07:31;1.85;;;1.15;;
74939;SDS011;63505;45.226;37.908;2023-04-06T14:09:57;3.58;;;0.90;;
74939;SDS011;63505;45.226;37.908;2023-04-06T14:12:23;2.45;;;1.23;;
74939;SDS011;63505;45.226;37.908;2023-04-06T14:14:49;2.85;;;1.05;;
74939;SDS011;63505;45.226;37.908;2023-04-06T14:17:15;2.92;;;1.30;;
74939;SDS011;63505;45.226;37.908;2023-04-06T14:19:41;2.65;;;0.98;;
74939;SDS011;63505;45.226;37.908;2023-04-06T14:22:08;3.65;;;1.02;;
74939;SDS011;63505;45.226;37.908;2023-04-06T14:24:34;3.97;;;1.27;;
74939;SDS011;63505;45.226;37.908;2023-04-06T14:27:01;4.32;;;1.23;;
74939;SDS011;63505;45.226;37.908;2023-04-06T14:29:27;3.42;;;1.25;;
74939;SDS011;63505;45.226;37.908;2023-04-06T14:31:53;7.97;;;1.33;;
74939;SDS011;63505;45.226;37.908;2023-04-06T14:34:25;3.33;;;1.08;;
74939;SDS011;63505;45.226;37.908;2023-04-06T14:36:52;2.47;;;1.10;;
74939;SDS011;63505;45.226;37.908;2023-04-06T14:39:18;6.68;;;1.38;;
74939;SDS011;63505;45.226;37.908;2023-04-06T14:41:44;6.97;;;1.90;;
74939;SDS011;63505;45.226;37.908;2023-04-06T14:44:10;9.20;;;1.80;;
74939;SDS011;63505;45.226;37.908;2023-04-06T14:46:37;4.88;;;1.63;;
74939;SDS011;63505;45.226;37.908;2023-04-06T14:49:03;3.72;;;1.48;;
74939;SDS011;63505;45.226;37.908;2023-04-06T14:51:30;3.92;;;1.73;;
74939;SDS011;63505;45.226;37.908;2023-04-06T14:53:56;2.92;;;1.20;;
74939;SDS011;63505;45.226;37.908;2023-04-06T14:56:22;4.93;;;1.77;;
74939;SDS011;63505;45.226;37.908;2023-04-06T14:58:49;2.97;;;0.98;;
74939;SDS011;63505;45.226;37.908;2023-04-06T15:01:19;5.47;;;1.88;;
74939;SDS011;63505;45.226;37.908;2023-04-06T15:03:46;3.22;;;1.42;;
74939;SDS011;63505;45.226;37.908;2023-04-06T15:06:12;2.75;;;1.00;;